PWSweather.com
Personal Weather Stations
Station Observations
KOMOKA
Komoka Village, Komoka, ON N0L IRO

Komoka VillageKomoka, ON N0L IRO

Lat: 42.9542444, Lon: -81.4348861

Elevation: 805

Station Type: Davis Vantage Pro 2

Latest ConditionsUpdated 9:02:05 PM EDT Friday, May 22, 2015
Currently Today's Max Today's Min Today's Average
Temperature 48.4°F9.1°C 86.0°F30.0°C 31.7°F-0.2°C 56.5°F13.6°C
Dew Point 31.5°F-0.3°C 69.7°F20.9°C 27.2°F-2.7°C 43.6°F6.4°C
Winds Calm Calm 9.3 mph W15.0 kmh W - 1.4 mph 2.3 kmh
Wind Gusts -- 26.6 mph42.8 kmh - -
Humidity 52% 86% 32% 64%
Pressure 30.28 in1025.4 mb 30.50 in1032.8 mb 29.75 in1007.5 mb -
Hour Temp Dew Point Humidity Winds Wind Gusts Pressure Precip Precip Rate Daily Precip Total
09:02 PM 48.4°F9.1°C 31.5°F-0.3°C 52% Calm Calm -- 30.28 in1025.4 mb 0.00 in0.0 mm 0.00 in0.0 mm 5.54 in140.7 mm
08:55 PM 48.9°F9.4°C 31.6°F-0.2°C 51% Calm Calm -- 30.28 in1025.4 mb 0.00 in0.0 mm 0.00 in0.0 mm 5.54 in140.7 mm
08:48 PM 49.5°F9.7°C 31.1°F-0.5°C 49% Calm Calm -- 30.28 in1025.4 mb 0.00 in0.0 mm 0.00 in0.0 mm 5.54 in140.7 mm
08:41 PM 50.0°F10.0°C 31.1°F-0.5°C 48% Calm Calm 1.0 mph1.6 kmh 30.27 in1025.1 mb 0.00 in0.0 mm 0.00 in0.0 mm 5.54 in140.7 mm
08:34 PM 50.5°F10.3°C 30.4°F-0.9°C 46% Calm Calm 5.0 mph8.0 kmh 30.27 in1025.1 mb 0.00 in0.0 mm 0.00 in0.0 mm 5.54 in140.7 mm
08:27 PM 50.9°F10.5°C 29.7°F-1.3°C 44% Calm Calm 4.0 mph6.4 kmh 30.27 in1025.1 mb 0.00 in0.0 mm 0.00 in0.0 mm 5.54 in140.7 mm
08:20 PM 51.3°F10.7°C 28.9°F-1.7°C 42% Calm Calm 4.0 mph6.4 kmh 30.26 in1024.7 mb 0.00 in0.0 mm 0.00 in0.0 mm 5.54 in140.7 mm
08:13 PM 51.6°F10.9°C 29.8°F-1.2°C 43% Calm Calm 3.0 mph4.8 kmh 30.26 in1024.7 mb 0.00 in0.0 mm 0.00 in0.0 mm 5.54 in140.7 mm
08:06 PM 52.0°F11.1°C 30.2°F-1.0°C 43% Calm Calm 7.0 mph11.3 kmh 30.26 in1024.7 mb 0.00 in0.0 mm 0.00 in0.0 mm 5.54 in140.7 mm
07:59 PM 52.3°F11.3°C 31.1°F-0.5°C 44% Calm Calm 5.0 mph8.0 kmh 30.26 in1024.7 mb 0.00 in0.0 mm 0.00 in0.0 mm 5.54 in140.7 mm
07:52 PM 52.5°F11.4°C 30.2°F-1.0°C 42% 1.0 mph NW1.6 kmh NW 7.0 mph11.3 kmh 30.25 in1024.4 mb 0.00 in0.0 mm 0.00 in0.0 mm 5.54 in140.7 mm
07:45 PM 52.9°F11.6°C 29.8°F-1.2°C 41% Calm Calm 5.0 mph8.0 kmh 30.25 in1024.4 mb 0.00 in0.0 mm 0.00 in0.0 mm 5.54 in140.7 mm
07:38 PM 53.2°F11.8°C 30.7°F-0.7°C 42% Calm Calm 4.0 mph6.4 kmh 30.25 in1024.4 mb 0.00 in0.0 mm 0.00 in0.0 mm 5.54 in140.7 mm
07:31 PM 53.4°F11.9°C 30.9°F-0.6°C 42% 1.0 mph NW1.6 kmh NW 17.0 mph27.4 kmh 30.25 in1024.4 mb 0.00 in0.0 mm 0.00 in0.0 mm 5.54 in140.7 mm
07:24 PM 54.0°F12.2°C 30.0°F-1.1°C 40% 1.0 mph NW1.6 kmh NW 9.0 mph14.5 kmh 30.25 in1024.4 mb 0.00 in0.0 mm 0.00 in0.0 mm 5.54 in140.7 mm
07:17 PM 54.1°F12.3°C 30.9°F-0.6°C 41% 1.0 mph NNW1.6 kmh NNW 8.0 mph12.9 kmh 30.24 in1024.0 mb 0.00 in0.0 mm 0.00 in0.0 mm 5.54 in140.7 mm
07:10 PM 54.3°F12.4°C 30.4°F-0.9°C 40% 1.0 mph NNW1.6 kmh NNW 8.0 mph12.9 kmh 30.24 in1024.0 mb 0.00 in0.0 mm 0.00 in0.0 mm 5.54 in140.7 mm
07:03 PM 54.5°F12.5°C 30.6°F-0.8°C 40% Calm Calm 8.0 mph12.9 kmh 30.24 in1024.0 mb 0.00 in0.0 mm 0.00 in0.0 mm 5.54 in140.7 mm
06:56 PM 54.7°F12.6°C 30.7°F-0.7°C 40% Calm Calm 7.0 mph11.3 kmh 30.24 in1024.0 mb 0.00 in0.0 mm 0.00 in0.0 mm 5.54 in140.7 mm
06:49 PM 54.9°F12.7°C 29.7°F-1.3°C 38% 1.0 mph NW1.6 kmh NW 7.0 mph11.3 kmh 30.24 in1024.0 mb 0.00 in0.0 mm 0.00 in0.0 mm 5.54 in140.7 mm
06:42 PM 55.0°F12.8°C 31.8°F-0.1°C 41% 1.0 mph NW1.6 kmh NW 9.0 mph14.5 kmh 30.24 in1024.0 mb 0.00 in0.0 mm 0.00 in0.0 mm 5.54 in140.7 mm
06:35 PM 55.4°F13.0°C 30.9°F-0.6°C 39% 1.0 mph NW1.6 kmh NW 9.0 mph14.5 kmh 30.24 in1024.0 mb 0.00 in0.0 mm 0.00 in0.0 mm 5.54 in140.7 mm
06:28 PM 55.6°F13.1°C 31.5°F-0.3°C 40% 1.0 mph NW1.6 kmh NW 7.0 mph11.3 kmh 30.24 in1024.0 mb 0.00 in0.0 mm 0.00 in0.0 mm 5.54 in140.7 mm
06:21 PM 55.8°F13.2°C 31.1°F-0.5°C 39% 1.0 mph NW1.6 kmh NW 9.0 mph14.5 kmh 30.24 in1024.0 mb 0.00 in0.0 mm 0.00 in0.0 mm 5.54 in140.7 mm
06:14 PM 55.9°F13.3°C 33.1°F0.6°C 42% 1.0 mph NW1.6 kmh NW 5.0 mph8.0 kmh 30.24 in1024.0 mb 0.00 in0.0 mm 0.00 in0.0 mm 5.54 in140.7 mm
06:07 PM 55.9°F13.3°C 33.3°F0.7°C 42% 1.0 mph NW1.6 kmh NW 7.0 mph11.3 kmh 30.24 in1024.0 mb 0.00 in0.0 mm 0.00 in0.0 mm 5.54 in140.7 mm
06:00 PM 55.9°F13.3°C 31.8°F-0.1°C 40% 1.0 mph NW1.6 kmh NW 8.0 mph12.9 kmh 30.23 in1023.7 mb 0.00 in0.0 mm 0.00 in0.0 mm 5.54 in140.7 mm
05:53 PM 56.7°F13.7°C 32.6°F0.3°C 40% 1.0 mph NW1.6 kmh NW 9.0 mph14.5 kmh 30.23 in1023.7 mb 0.00 in0.0 mm 0.00 in0.0 mm 5.54 in140.7 mm
05:52 PM 56.4°F13.6°C 33.0°F0.6°C 41% 1.0 mph NW1.6 kmh NW 9.0 mph14.5 kmh 30.23 in1023.7 mb 0.00 in0.0 mm 0.00 in0.0 mm 5.54 in140.7 mm
05:50 PM 56.0°F13.3°C 32.6°F0.3°C 41% 2.7 mph NW4.3 kmh NW 16.0 mph25.7 kmh 30.23 in1023.7 mb 0.00 in0.0 mm 0.00 in0.0 mm 5.54 in140.7 mm
05:45 PM 56.0°F13.3°C 32.0°F0.0°C 40% 2.7 mph NW4.3 kmh NW 16.0 mph25.7 kmh 30.23 in1023.7 mb 0.00 in0.0 mm 0.00 in0.0 mm 5.54 in140.7 mm
05:40 PM 56.2°F13.4°C 32.2°F0.1°C 40% 3.0 mph NW4.8 kmh NW 9.0 mph14.5 kmh 30.23 in1023.7 mb 0.00 in0.0 mm 0.00 in0.0 mm 5.54 in140.7 mm
05:39 PM 56.7°F13.7°C 32.6°F0.3°C 40% 1.3 mph NW2.1 kmh NW 9.3 mph15.0 kmh 30.23 in1023.7 mb 0.00 in0.0 mm 0.00 in0.0 mm 5.54 in140.7 mm
05:35 PM 56.3°F13.5°C 32.3°F0.2°C 40% 2.7 mph NW4.3 kmh NW 9.3 mph15.0 kmh 30.23 in1023.7 mb 2.77 in70.4 mm 33.24 in844.3 mm 2.77 in70.4 mm
05:30 PM 56.4°F13.6°C 33.0°F0.6°C 41% 2.7 mph NW4.3 kmh NW 9.3 mph15.0 kmh 30.23 in1023.7 mb 0.00 in0.0 mm 0.00 in0.0 mm 2.77 in70.4 mm
05:25 PM 56.6°F13.7°C 31.9°F-0.1°C 39% 1.3 mph NNW2.1 kmh NNW 9.3 mph15.0 kmh 30.23 in1023.7 mb 2.77 in70.4 mm 0.00 in0.0 mm 2.77 in70.4 mm
05:20 PM 56.7°F13.7°C 32.6°F0.3°C 40% Calm Calm 9.3 mph15.0 kmh 30.23 in1023.7 mb 2.77 in70.4 mm 55.40 in1407.2 mm 2.77 in70.4 mm
05:17 PM 56.5°F13.6°C 33.1°F0.6°C 41% 4.0 mph NW6.4 kmh NW 26.6 mph42.8 kmh 30.20 in1022.7 mb 0.00 in0.0 mm 0.00 in0.0 mm 0.00 in0.0 mm
05:16 PM 74.6°F23.7°C 65.4°F18.6°C 73% Calm Calm 5.3 mph8.5 kmh 29.89 in1012.2 mb 0.00 in0.0 mm 0.00 in0.0 mm 0.00 in0.0 mm
05:15 PM 62.8°F17.1°C 40.5°F4.7°C 44% 2.7 mph SSE4.3 kmh SSE 9.3 mph15.0 kmh 30.37 in1028.4 mb 0.00 in0.0 mm 0.00 in0.0 mm 0.00 in0.0 mm
05:14 PM 79.1°F26.2°C 65.4°F18.6°C 63% Calm Calm 8.0 mph12.9 kmh 29.98 in1015.2 mb 0.00 in0.0 mm 0.00 in0.0 mm 0.09 in2.3 mm
05:13 PM 47.8°F8.8°C 40.9°F4.9°C 77% Calm Calm 2.7 mph4.3 kmh 30.25 in1024.4 mb 0.00 in0.0 mm 0.00 in0.0 mm 0.00 in0.0 mm
05:12 PM 56.4°F13.6°C 33.0°F0.6°C 41% 1.3 mph NW2.1 kmh NW 9.3 mph15.0 kmh 30.23 in1023.7 mb 0.00 in0.0 mm 0.00 in0.0 mm 0.00 in0.0 mm
05:04 PM 56.7°F13.7°C 32.5°F0.3°C 40% 3.0 mph NW4.8 kmh NW 12.0 mph19.3 kmh 30.23 in1023.7 mb 0.00 in0.0 mm 0.00 in0.0 mm 0.00 in0.0 mm
04:57 PM 57.4°F14.1°C 33.3°F0.7°C 40% 1.0 mph NW1.6 kmh NW 7.0 mph11.3 kmh 30.23 in1023.7 mb 0.00 in0.0 mm 0.00 in0.0 mm 0.00 in0.0 mm
04:50 PM 57.6°F14.2°C 36.3°F2.4°C 45% 1.0 mph NW1.6 kmh NW 8.0 mph12.9 kmh 30.23 in1023.7 mb 0.00 in0.0 mm 0.00 in0.0 mm 0.00 in0.0 mm
04:43 PM 57.2°F14.0°C 35.4°F1.9°C 44% 3.0 mph NW4.8 kmh NW 8.0 mph12.9 kmh 30.22 in1023.4 mb 0.00 in0.0 mm 0.00 in0.0 mm 0.00 in0.0 mm
04:36 PM 57.0°F13.9°C 34.2°F1.2°C 42% 3.0 mph NW4.8 kmh NW 9.0 mph14.5 kmh 30.23 in1023.7 mb 0.00 in0.0 mm 0.00 in0.0 mm 0.00 in0.0 mm
04:29 PM 57.0°F13.9°C 34.9°F1.6°C 43% 4.0 mph NW6.4 kmh NW 12.0 mph19.3 kmh 30.23 in1023.7 mb 0.00 in0.0 mm 0.00 in0.0 mm 0.00 in0.0 mm
04:22 PM 57.4°F14.1°C 35.1°F1.7°C 43% 3.0 mph NNW4.8 kmh NNW 8.0 mph12.9 kmh 30.23 in1023.7 mb 0.00 in0.0 mm 0.00 in0.0 mm 0.00 in0.0 mm
04:15 PM 57.4°F14.1°C 35.6°F2.0°C 44% 3.0 mph NW4.8 kmh NW 9.0 mph14.5 kmh 30.23 in1023.7 mb 0.00 in0.0 mm 0.00 in0.0 mm 0.00 in0.0 mm
04:08 PM 57.2°F14.0°C 34.3°F1.3°C 42% 3.0 mph NW4.8 kmh NW 15.0 mph24.1 kmh 30.23 in1023.7 mb 0.00 in0.0 mm 0.00 in0.0 mm 0.00 in0.0 mm
04:01 PM 57.0°F13.9°C 33.4°F0.8°C 41% 3.0 mph NW4.8 kmh NW 15.0 mph24.1 kmh 30.23 in1023.7 mb 0.00 in0.0 mm 0.00 in0.0 mm 0.00 in0.0 mm
03:54 PM 57.2°F14.0°C 36.0°F2.2°C 45% 3.0 mph NW4.8 kmh NW 15.0 mph24.1 kmh 30.22 in1023.4 mb 0.00 in0.0 mm 0.00 in0.0 mm 0.00 in0.0 mm
03:47 PM 57.0°F13.9°C 34.2°F1.2°C 42% 4.0 mph NW6.4 kmh NW 16.0 mph25.7 kmh 30.22 in1023.4 mb 0.00 in0.0 mm 0.00 in0.0 mm 0.00 in0.0 mm
03:40 PM 57.6°F14.2°C 32.7°F0.4°C 39% 4.0 mph NW6.4 kmh NW 16.0 mph25.7 kmh 30.21 in1023.0 mb 0.00 in0.0 mm 0.00 in0.0 mm 0.00 in0.0 mm
03:33 PM 57.6°F14.2°C 36.3°F2.4°C 45% 3.0 mph NW4.8 kmh NW 17.0 mph27.4 kmh 30.21 in1023.0 mb 0.00 in0.0 mm 0.00 in0.0 mm 0.00 in0.0 mm
03:26 PM 57.4°F14.1°C 33.1°F0.6°C 40% 4.0 mph NW6.4 kmh NW 17.0 mph27.4 kmh 30.22 in1023.4 mb 0.00 in0.0 mm 0.00 in0.0 mm 0.00 in0.0 mm
03:19 PM 57.0°F13.9°C 32.4°F0.2°C 39% 4.0 mph NNW6.4 kmh NNW 13.0 mph20.9 kmh 30.21 in1023.0 mb 0.00 in0.0 mm 0.00 in0.0 mm 0.00 in0.0 mm
03:12 PM 56.7°F13.7°C 30.6°F-0.8°C 37% 4.0 mph NW6.4 kmh NW 16.0 mph25.7 kmh 30.21 in1023.0 mb 0.00 in0.0 mm 0.00 in0.0 mm 0.00 in0.0 mm
03:05 PM 56.3°F13.5°C 29.7°F-1.3°C 36% 7.0 mph NW11.3 kmh NW 21.0 mph33.8 kmh 30.21 in1023.0 mb 0.00 in0.0 mm 0.00 in0.0 mm 0.00 in0.0 mm
02:58 PM 56.5°F13.6°C 29.1°F-1.6°C 35% 5.0 mph NW8.0 kmh NW 16.0 mph25.7 kmh 30.21 in1023.0 mb 0.00 in0.0 mm 0.00 in0.0 mm 0.00 in0.0 mm
02:51 PM 56.8°F13.8°C 30.2°F-1.0°C 36% 4.0 mph NW6.4 kmh NW 15.0 mph24.1 kmh 30.20 in1022.7 mb 0.00 in0.0 mm 0.00 in0.0 mm 0.00 in0.0 mm
02:44 PM 56.8°F13.8°C 32.7°F0.4°C 40% 4.0 mph NW6.4 kmh NW 15.0 mph24.1 kmh 30.20 in1022.7 mb 0.00 in0.0 mm 0.00 in0.0 mm 0.00 in0.0 mm
02:37 PM 56.8°F13.8°C 30.0°F-1.1°C 36% 3.0 mph NW4.8 kmh NW 15.0 mph24.1 kmh 30.20 in1022.7 mb 0.00 in0.0 mm 0.00 in0.0 mm 0.00 in0.0 mm
02:30 PM 56.5°F13.6°C 33.1°F0.6°C 41% 4.0 mph NW6.4 kmh NW 17.0 mph27.4 kmh 30.20 in1022.7 mb 0.00 in0.0 mm 0.00 in0.0 mm 0.00 in0.0 mm
02:23 PM 56.3°F13.5°C 28.9°F-1.7°C 35% 4.0 mph NW6.4 kmh NW 20.0 mph32.2 kmh 30.19 in1022.4 mb 0.00 in0.0 mm 0.00 in0.0 mm 0.00 in0.0 mm
02:16 PM 57.0°F13.9°C 30.4°F-0.9°C 36% 4.0 mph NW6.4 kmh NW 20.0 mph32.2 kmh 30.19 in1022.4 mb 0.00 in0.0 mm 0.00 in0.0 mm 0.00 in0.0 mm
02:09 PM 57.4°F14.1°C 34.3°F1.3°C 42% 3.0 mph NW4.8 kmh NW 13.0 mph20.9 kmh 30.18 in1022.0 mb 0.00 in0.0 mm 0.00 in0.0 mm 0.00 in0.0 mm
02:02 PM 57.7°F14.3°C 34.2°F1.2°C 41% 3.0 mph NNW4.8 kmh NNW 13.0 mph20.9 kmh 30.18 in1022.0 mb 0.00 in0.0 mm 0.00 in0.0 mm 0.00 in0.0 mm
01:55 PM 57.7°F14.3°C 32.9°F0.5°C 39% 3.0 mph NNW4.8 kmh NNW 13.0 mph20.9 kmh 30.18 in1022.0 mb 0.00 in0.0 mm 0.00 in0.0 mm 0.00 in0.0 mm
01:48 PM 57.6°F14.2°C 34.7°F1.5°C 42% 3.0 mph NW4.8 kmh NW 15.0 mph24.1 kmh 30.17 in1021.7 mb 0.00 in0.0 mm 0.00 in0.0 mm 0.00 in0.0 mm
01:41 PM 57.0°F13.9°C 32.4°F0.2°C 39% 4.0 mph NW6.4 kmh NW 15.0 mph24.1 kmh 30.17 in1021.7 mb 0.00 in0.0 mm 0.00 in0.0 mm 0.00 in0.0 mm
01:34 PM 57.4°F14.1°C 32.5°F0.3°C 39% 4.0 mph NW6.4 kmh NW 20.0 mph32.2 kmh 30.17 in1021.7 mb 0.00 in0.0 mm 0.00 in0.0 mm 0.00 in0.0 mm
01:27 PM 57.2°F14.0°C 30.4°F-0.9°C 36% 5.0 mph NW8.0 kmh NW 20.0 mph32.2 kmh 30.16 in1021.3 mb 0.00 in0.0 mm 0.00 in0.0 mm 0.00 in0.0 mm
01:20 PM 57.6°F14.2°C 34.0°F1.1°C 41% 4.0 mph NW6.4 kmh NW 15.0 mph24.1 kmh 30.16 in1021.3 mb 0.00 in0.0 mm 0.00 in0.0 mm 0.00 in0.0 mm
01:13 PM 57.9°F14.4°C 34.9°F1.6°C 42% 4.0 mph NW6.4 kmh NW 15.0 mph24.1 kmh 30.16 in1021.3 mb 0.00 in0.0 mm 0.00 in0.0 mm 0.00 in0.0 mm
01:06 PM 58.5°F14.7°C 33.6°F0.9°C 39% 4.0 mph NW6.4 kmh NW 13.0 mph20.9 kmh 30.15 in1021.0 mb 0.00 in0.0 mm 0.00 in0.0 mm 0.00 in0.0 mm
12:59 PM 58.8°F14.9°C 38.7°F3.7°C 47% 3.0 mph NW4.8 kmh NW 13.0 mph20.9 kmh 30.15 in1021.0 mb 0.00 in0.0 mm 0.00 in0.0 mm 0.00 in0.0 mm
12:52 PM 59.2°F15.1°C 39.4°F4.1°C 48% 3.0 mph NW4.8 kmh NW 20.0 mph32.2 kmh 30.14 in1020.7 mb 0.00 in0.0 mm 0.00 in0.0 mm 0.00 in0.0 mm
12:45 PM 60.1°F15.6°C 41.4°F5.2°C 50% 4.0 mph NW6.4 kmh NW 20.0 mph32.2 kmh 30.14 in1020.7 mb 0.00 in0.0 mm 0.00 in0.0 mm 0.00 in0.0 mm
12:38 PM 60.4°F15.8°C 41.7°F5.4°C 50% 3.0 mph NW4.8 kmh NW 17.0 mph27.4 kmh 30.14 in1020.7 mb 0.00 in0.0 mm 0.00 in0.0 mm 0.00 in0.0 mm
12:31 PM 59.9°F15.5°C 45.5°F7.5°C 59% 4.0 mph NNW6.4 kmh NNW 17.0 mph27.4 kmh 30.13 in1020.3 mb 0.00 in0.0 mm 0.00 in0.0 mm 0.00 in0.0 mm
12:24 PM 59.2°F15.1°C 45.7°F7.6°C 61% 3.0 mph N4.8 kmh N 15.0 mph24.1 kmh 30.13 in1020.3 mb 0.00 in0.0 mm 0.00 in0.0 mm 0.00 in0.0 mm
12:17 PM 58.3°F14.6°C 46.6°F8.1°C 65% 3.0 mph NW4.8 kmh NW 12.0 mph19.3 kmh 30.13 in1020.3 mb 0.00 in0.0 mm 0.00 in0.0 mm 0.00 in0.0 mm
12:10 PM 57.7°F14.3°C 45.1°F7.3°C 63% 3.0 mph NW4.8 kmh NW 20.0 mph32.2 kmh 30.12 in1020.0 mb 0.00 in0.0 mm 0.00 in0.0 mm 0.00 in0.0 mm
12:03 PM 57.4°F14.1°C 45.7°F7.6°C 65% 5.0 mph NW8.0 kmh NW 20.0 mph32.2 kmh 30.12 in1020.0 mb 0.00 in0.0 mm 0.00 in0.0 mm 0.00 in0.0 mm
11:56 AM 57.6°F14.2°C 45.9°F7.7°C 65% 4.0 mph NW6.4 kmh NW 20.0 mph32.2 kmh 30.12 in1020.0 mb 0.00 in0.0 mm 0.00 in0.0 mm 0.00 in0.0 mm
11:49 AM 57.2°F14.0°C 46.4°F8.0°C 67% 3.0 mph NW4.8 kmh NW 20.0 mph32.2 kmh 30.12 in1020.0 mb 0.00 in0.0 mm 0.00 in0.0 mm 0.00 in0.0 mm
11:42 AM 56.7°F13.7°C 45.3°F7.4°C 66% 4.0 mph WNW6.4 kmh WNW 12.0 mph19.3 kmh 30.12 in1020.0 mb 0.00 in0.0 mm 0.00 in0.0 mm 0.00 in0.0 mm
11:35 AM 57.0°F13.9°C 44.1°F6.7°C 62% 4.0 mph NW6.4 kmh NW 13.0 mph20.9 kmh 30.12 in1020.0 mb 0.00 in0.0 mm 0.00 in0.0 mm 0.00 in0.0 mm
11:28 AM 56.8°F13.8°C 45.1°F7.3°C 65% 3.0 mph NW4.8 kmh NW 15.0 mph24.1 kmh 30.11 in1019.6 mb 0.00 in0.0 mm 0.00 in0.0 mm 0.00 in0.0 mm
11:21 AM 56.8°F13.8°C 43.9°F6.6°C 62% 3.0 mph WNW4.8 kmh WNW 9.0 mph14.5 kmh 30.11 in1019.6 mb 0.00 in0.0 mm 0.00 in0.0 mm 0.00 in0.0 mm
11:14 AM 56.8°F13.8°C 44.4°F6.9°C 63% 3.0 mph WNW4.8 kmh WNW 13.0 mph20.9 kmh 30.11 in1019.6 mb 0.00 in0.0 mm 0.00 in0.0 mm 0.00 in0.0 mm
11:07 AM 55.9°F13.3°C 44.4°F6.9°C 65% 3.0 mph NW4.8 kmh NW 13.0 mph20.9 kmh 30.10 in1019.3 mb 0.00 in0.0 mm 0.00 in0.0 mm 0.00 in0.0 mm
11:00 AM 56.1°F13.4°C 44.1°F6.7°C 64% 3.0 mph NW4.8 kmh NW 9.0 mph14.5 kmh 30.10 in1019.3 mb 0.00 in0.0 mm 0.00 in0.0 mm 0.00 in0.0 mm
10:53 AM 55.8°F13.2°C 43.3°F6.3°C 63% 3.0 mph NW4.8 kmh NW 11.0 mph17.7 kmh 30.09 in1019.0 mb 0.00 in0.0 mm 0.00 in0.0 mm 0.00 in0.0 mm
10:46 AM 55.4°F13.0°C 43.0°F6.1°C 63% 4.0 mph NW6.4 kmh NW 15.0 mph24.1 kmh 30.09 in1019.0 mb 0.00 in0.0 mm 0.00 in0.0 mm 0.00 in0.0 mm
10:39 AM 55.9°F13.3°C 42.6°F5.9°C 61% 3.0 mph NW4.8 kmh NW 16.0 mph25.7 kmh 30.09 in1019.0 mb 0.00 in0.0 mm 0.00 in0.0 mm 0.00 in0.0 mm
10:32 AM 55.6°F13.1°C 43.2°F6.2°C 63% 3.0 mph NNW4.8 kmh NNW 16.0 mph25.7 kmh 30.09 in1019.0 mb 0.00 in0.0 mm 0.00 in0.0 mm 0.00 in0.0 mm
10:25 AM 55.0°F12.8°C 44.2°F6.8°C 67% 3.0 mph NNW4.8 kmh NNW 15.0 mph24.1 kmh 30.09 in1019.0 mb 0.00 in0.0 mm 0.00 in0.0 mm 0.00 in0.0 mm
10:18 AM 54.1°F12.3°C 42.6°F5.9°C 65% 3.0 mph NW4.8 kmh NW 11.0 mph17.7 kmh 30.09 in1019.0 mb 0.00 in0.0 mm 0.00 in0.0 mm 0.00 in0.0 mm
10:11 AM 53.4°F11.9°C 40.6°F4.8°C 62% 3.0 mph NW4.8 kmh NW 12.0 mph19.3 kmh 30.09 in1019.0 mb 0.00 in0.0 mm 0.00 in0.0 mm 0.00 in0.0 mm
10:04 AM 53.1°F11.7°C 40.8°F4.9°C 63% 3.0 mph WNW4.8 kmh WNW 15.0 mph24.1 kmh 30.09 in1019.0 mb 0.00 in0.0 mm 0.00 in0.0 mm 0.00 in0.0 mm
09:47 AM 52.2°F11.2°C 39.9°F4.4°C 63% 1.0 mph WNW1.6 kmh WNW 7.0 mph11.3 kmh 30.08 in1018.6 mb 0.00 in0.0 mm 0.00 in0.0 mm 0.00 in0.0 mm
09:40 AM 51.6°F10.9°C 39.9°F4.4°C 64% 3.0 mph NW4.8 kmh NW 12.0 mph19.3 kmh 30.08 in1018.6 mb 0.00 in0.0 mm 0.00 in0.0 mm 0.00 in0.0 mm
09:33 AM 51.8°F11.0°C 39.6°F4.2°C 63% 3.0 mph NW4.8 kmh NW 12.0 mph19.3 kmh 30.08 in1018.6 mb 0.00 in0.0 mm 0.00 in0.0 mm 0.00 in0.0 mm
09:26 AM 51.6°F10.9°C 39.9°F4.4°C 64% 1.0 mph WNW1.6 kmh WNW 7.0 mph11.3 kmh 30.08 in1018.6 mb 0.00 in0.0 mm 0.00 in0.0 mm 0.00 in0.0 mm
09:19 AM 51.4°F10.8°C 40.1°F4.5°C 65% 1.0 mph NW1.6 kmh NW 11.0 mph17.7 kmh 30.08 in1018.6 mb 0.00 in0.0 mm 0.00 in0.0 mm 0.00 in0.0 mm
09:12 AM 50.7°F10.4°C 39.4°F4.1°C 65% 1.0 mph NW1.6 kmh NW 7.0 mph11.3 kmh 30.07 in1018.3 mb 0.00 in0.0 mm 0.00 in0.0 mm 0.00 in0.0 mm
09:05 AM 50.4°F10.2°C 38.3°F3.5°C 63% 1.0 mph NW1.6 kmh NW 16.0 mph25.7 kmh 30.07 in1018.3 mb 0.00 in0.0 mm 0.00 in0.0 mm 0.00 in0.0 mm
08:58 AM 50.2°F10.1°C 37.9°F3.3°C 63% 1.0 mph NW1.6 kmh NW 16.0 mph25.7 kmh 30.07 in1018.3 mb 0.00 in0.0 mm 0.00 in0.0 mm 0.00 in0.0 mm
08:51 AM 49.6°F9.8°C 37.6°F3.1°C 63% 3.0 mph NW4.8 kmh NW 7.0 mph11.3 kmh 30.07 in1018.3 mb 0.00 in0.0 mm 0.00 in0.0 mm 0.00 in0.0 mm
08:44 AM 49.5°F9.7°C 37.4°F3.0°C 63% 3.0 mph NW4.8 kmh NW 7.0 mph11.3 kmh 30.07 in1018.3 mb 0.00 in0.0 mm 0.00 in0.0 mm 0.00 in0.0 mm
08:37 AM 48.9°F9.4°C 36.9°F2.7°C 63% 3.0 mph NW4.8 kmh NW 15.0 mph24.1 kmh 30.07 in1018.3 mb 0.00 in0.0 mm 0.00 in0.0 mm 0.00 in0.0 mm
08:30 AM 48.6°F9.2°C 36.5°F2.5°C 63% 3.0 mph NW4.8 kmh NW 13.0 mph20.9 kmh 30.06 in1017.9 mb 0.00 in0.0 mm 0.00 in0.0 mm 0.00 in0.0 mm
08:23 AM 48.2°F9.0°C 37.0°F2.8°C 65% 1.0 mph NW1.6 kmh NW 7.0 mph11.3 kmh 30.06 in1017.9 mb 0.00 in0.0 mm 0.00 in0.0 mm 0.00 in0.0 mm
08:16 AM 47.8°F8.8°C 36.1°F2.3°C 64% 1.0 mph NW1.6 kmh NW 8.0 mph12.9 kmh 30.06 in1017.9 mb 0.00 in0.0 mm 0.00 in0.0 mm 0.00 in0.0 mm
08:09 AM 47.3°F8.5°C 36.5°F2.5°C 66% 1.0 mph NW1.6 kmh NW 8.0 mph12.9 kmh 30.05 in1017.6 mb 0.00 in0.0 mm 0.00 in0.0 mm 0.00 in0.0 mm
08:02 AM 46.9°F8.3°C 36.1°F2.3°C 66% 1.0 mph NW1.6 kmh NW 8.0 mph12.9 kmh 30.05 in1017.6 mb 0.00 in0.0 mm 0.00 in0.0 mm 0.00 in0.0 mm
07:55 AM 46.4°F8.0°C 36.3°F2.4°C 68% Calm Calm 7.0 mph11.3 kmh 30.05 in1017.6 mb 0.00 in0.0 mm 0.00 in0.0 mm 0.00 in0.0 mm
07:48 AM 45.9°F7.7°C 36.3°F2.4°C 69% Calm Calm 4.0 mph6.4 kmh 30.05 in1017.6 mb 0.00 in0.0 mm 0.00 in0.0 mm 0.00 in0.0 mm
07:41 AM 45.3°F7.4°C 36.5°F2.5°C 71% Calm Calm 5.0 mph8.0 kmh 30.04 in1017.3 mb 0.00 in0.0 mm 0.00 in0.0 mm 0.00 in0.0 mm
07:34 AM 44.8°F7.1°C 36.0°F2.2°C 71% Calm Calm 5.0 mph8.0 kmh 30.04 in1017.3 mb 0.00 in0.0 mm 0.00 in0.0 mm 0.00 in0.0 mm
07:27 AM 44.2°F6.8°C 36.1°F2.3°C 73% Calm Calm 4.0 mph6.4 kmh 30.04 in1017.3 mb 0.00 in0.0 mm 0.00 in0.0 mm 0.00 in0.0 mm
07:20 AM 43.7°F6.5°C 36.0°F2.2°C 74% Calm Calm 4.0 mph6.4 kmh 30.04 in1017.3 mb 0.00 in0.0 mm 0.00 in0.0 mm 0.00 in0.0 mm
07:13 AM 43.2°F6.2°C 35.8°F2.1°C 75% Calm Calm 4.0 mph6.4 kmh 30.03 in1016.9 mb 0.00 in0.0 mm 0.00 in0.0 mm 0.00 in0.0 mm
07:06 AM 42.4°F5.8°C 35.4°F1.9°C 76% Calm Calm 7.0 mph11.3 kmh 30.03 in1016.9 mb 0.00 in0.0 mm 0.00 in0.0 mm 0.00 in0.0 mm
06:59 AM 42.1°F5.6°C 35.1°F1.7°C 76% Calm Calm 1.0 mph1.6 kmh 30.03 in1016.9 mb 0.00 in0.0 mm 0.00 in0.0 mm 0.00 in0.0 mm
06:52 AM 41.7°F5.4°C 34.7°F1.5°C 76% Calm Calm 3.0 mph4.8 kmh 30.03 in1016.9 mb 0.00 in0.0 mm 0.00 in0.0 mm 0.00 in0.0 mm
06:45 AM 41.5°F5.3°C 34.5°F1.4°C 76% Calm Calm 1.0 mph1.6 kmh 30.02 in1016.6 mb 0.00 in0.0 mm 0.00 in0.0 mm 0.00 in0.0 mm
06:38 AM 41.4°F5.2°C 34.7°F1.5°C 77% Calm Calm -- 30.02 in1016.6 mb 0.00 in0.0 mm 0.00 in0.0 mm 0.00 in0.0 mm
06:31 AM 41.4°F5.2°C 34.7°F1.5°C 77% Calm Calm -- 30.02 in1016.6 mb 0.00 in0.0 mm 0.00 in0.0 mm 0.00 in0.0 mm
06:24 AM 41.2°F5.1°C 34.5°F1.4°C 77% Calm Calm -- 30.02 in1016.6 mb 0.00 in0.0 mm 0.00 in0.0 mm 0.00 in0.0 mm
06:17 AM 41.0°F5.0°C 34.3°F1.3°C 77% Calm Calm -- 30.01 in1016.3 mb 0.00 in0.0 mm 0.00 in0.0 mm 0.00 in0.0 mm
06:10 AM 40.8°F4.9°C 34.2°F1.2°C 77% Calm Calm 1.0 mph1.6 kmh 30.01 in1016.3 mb 0.00 in0.0 mm 0.00 in0.0 mm 0.00 in0.0 mm
06:03 AM 40.8°F4.9°C 34.5°F1.4°C 78% Calm Calm 1.0 mph1.6 kmh 30.01 in1016.3 mb 0.00 in0.0 mm 0.00 in0.0 mm 0.00 in0.0 mm
05:56 AM 41.0°F5.0°C 34.3°F1.3°C 77% Calm Calm -- 30.00 in1015.9 mb 0.00 in0.0 mm 0.00 in0.0 mm 0.00 in0.0 mm
05:49 AM 41.2°F5.1°C 34.5°F1.4°C 77% Calm Calm -- 30.00 in1015.9 mb 0.00 in0.0 mm 0.00 in0.0 mm 0.00 in0.0 mm
05:42 AM 41.4°F5.2°C 34.7°F1.5°C 77% Calm Calm -- 30.00 in1015.9 mb 0.00 in0.0 mm 0.00 in0.0 mm 0.00 in0.0 mm
05:35 AM 41.4°F5.2°C 34.7°F1.5°C 77% Calm Calm 3.0 mph4.8 kmh 30.00 in1015.9 mb 0.00 in0.0 mm 0.00 in0.0 mm 0.00 in0.0 mm
05:28 AM 41.4°F5.2°C 34.3°F1.3°C 76% Calm Calm 3.0 mph4.8 kmh 29.99 in1015.6 mb 0.00 in0.0 mm 0.00 in0.0 mm 0.00 in0.0 mm
05:21 AM 41.5°F5.3°C 34.0°F1.1°C 74% Calm Calm -- 29.99 in1015.6 mb 0.00 in0.0 mm 0.00 in0.0 mm 0.00 in0.0 mm
05:14 AM 42.1°F5.6°C 34.3°F1.3°C 74% Calm Calm -- 29.99 in1015.6 mb 0.00 in0.0 mm 0.00 in0.0 mm 0.00 in0.0 mm
05:07 AM 42.3°F5.7°C 34.0°F1.1°C 72% Calm Calm -- 29.99 in1015.6 mb 0.00 in0.0 mm 0.00 in0.0 mm 0.00 in0.0 mm
05:00 AM 42.6°F5.9°C 34.0°F1.1°C 71% Calm Calm -- 29.99 in1015.6 mb 0.00 in0.0 mm 0.00 in0.0 mm 0.00 in0.0 mm
04:53 AM 43.2°F6.2°C 34.0°F1.1°C 70% Calm Calm -- 29.98 in1015.2 mb 0.00 in0.0 mm 0.00 in0.0 mm 0.00 in0.0 mm
04:46 AM 43.5°F6.4°C 34.0°F1.1°C 69% Calm Calm -- 29.99 in1015.6 mb 0.00 in0.0 mm 0.00 in0.0 mm 0.00 in0.0 mm
04:39 AM 43.9°F6.6°C 34.0°F1.1°C 68% Calm Calm -- 29.98 in1015.2 mb 0.00 in0.0 mm 0.00 in0.0 mm 0.00 in0.0 mm
04:32 AM 44.1°F6.7°C 33.8°F1.0°C 67% Calm Calm -- 29.98 in1015.2 mb 0.00 in0.0 mm 0.00 in0.0 mm 0.00 in0.0 mm
04:25 AM 44.1°F6.7°C 33.8°F1.0°C 67% Calm Calm -- 29.98 in1015.2 mb 0.00 in0.0 mm 0.00 in0.0 mm 0.00 in0.0 mm
04:18 AM 43.9°F6.6°C 33.6°F0.9°C 67% Calm Calm -- 29.98 in1015.2 mb 0.00 in0.0 mm 0.00 in0.0 mm 0.00 in0.0 mm
04:11 AM 43.5°F6.4°C 34.2°F1.2°C 69% Calm Calm 3.0 mph4.8 kmh 29.97 in1014.9 mb 0.00 in0.0 mm 0.00 in0.0 mm 0.00 in0.0 mm
04:04 AM 43.3°F6.3°C 34.3°F1.3°C 70% Calm Calm 3.0 mph4.8 kmh 29.97 in1014.9 mb 0.00 in0.0 mm 0.00 in0.0 mm 0.00 in0.0 mm
03:57 AM 43.9°F6.6°C 35.1°F1.7°C 71% Calm Calm -- 29.97 in1014.9 mb 0.00 in0.0 mm 0.00 in0.0 mm 0.00 in0.0 mm
03:50 AM 44.2°F6.8°C 35.8°F2.1°C 72% Calm Calm -- 29.97 in1014.9 mb 0.00 in0.0 mm 0.00 in0.0 mm 0.00 in0.0 mm
03:44 AM 44.6°F7.0°C 35.8°F2.1°C 71% Calm Calm -- 29.97 in1014.9 mb 0.00 in0.0 mm 0.00 in0.0 mm 0.00 in0.0 mm
03:36 AM 45.0°F7.2°C 35.4°F1.9°C 69% Calm Calm -- 29.97 in1014.9 mb 0.00 in0.0 mm 0.00 in0.0 mm 0.00 in0.0 mm
03:29 AM 45.3°F7.4°C 35.4°F1.9°C 68% Calm Calm -- 29.97 in1014.9 mb 0.00 in0.0 mm 0.00 in0.0 mm 0.00 in0.0 mm
03:22 AM 45.9°F7.7°C 35.8°F2.1°C 68% Calm Calm -- 29.97 in1014.9 mb 0.00 in0.0 mm 0.00 in0.0 mm 0.00 in0.0 mm
03:15 AM 46.0°F7.8°C 35.8°F2.1°C 67% Calm Calm 1.0 mph1.6 kmh 29.97 in1014.9 mb 0.00 in0.0 mm 0.00 in0.0 mm 0.00 in0.0 mm
03:08 AM 46.4°F8.0°C 36.0°F2.2°C 67% Calm Calm 1.0 mph1.6 kmh 29.96 in1014.6 mb 0.00 in0.0 mm 0.00 in0.0 mm 0.00 in0.0 mm
03:01 AM 46.8°F8.2°C 36.0°F2.2°C 66% Calm Calm -- 29.96 in1014.6 mb 0.00 in0.0 mm 0.00 in0.0 mm 0.00 in0.0 mm
02:54 AM 47.1°F8.4°C 36.3°F2.4°C 66% Calm Calm -- 29.96 in1014.6 mb 0.00 in0.0 mm 0.00 in0.0 mm 0.00 in0.0 mm
02:47 AM 47.5°F8.6°C 37.0°F2.8°C 67% Calm Calm -- 29.96 in1014.6 mb 0.00 in0.0 mm 0.00 in0.0 mm 0.00 in0.0 mm
02:40 AM 47.7°F8.7°C 37.2°F2.9°C 67% Calm Calm 1.0 mph1.6 kmh 29.96 in1014.6 mb 0.00 in0.0 mm 0.00 in0.0 mm 0.00 in0.0 mm
02:33 AM 47.8°F8.8°C 37.4°F3.0°C 67% Calm Calm 1.0 mph1.6 kmh 29.96 in1014.6 mb 0.00 in0.0 mm 0.00 in0.0 mm 0.00 in0.0 mm
02:26 AM 48.2°F9.0°C 38.1°F3.4°C 68% Calm Calm 3.0 mph4.8 kmh 29.96 in1014.6 mb 0.00 in0.0 mm 0.00 in0.0 mm 0.00 in0.0 mm
02:19 AM 48.6°F9.2°C 38.5°F3.6°C 68% Calm Calm 1.0 mph1.6 kmh 29.95 in1014.2 mb 0.00 in0.0 mm 0.00 in0.0 mm 0.00 in0.0 mm
02:12 AM 48.9°F9.4°C 38.8°F3.8°C 68% Calm Calm 4.0 mph6.4 kmh 29.96 in1014.6 mb 0.00 in0.0 mm 0.00 in0.0 mm 0.00 in0.0 mm
02:05 AM 49.3°F9.6°C 38.7°F3.7°C 67% Calm Calm 3.0 mph4.8 kmh 29.96 in1014.6 mb 0.00 in0.0 mm 0.00 in0.0 mm 0.00 in0.0 mm
01:58 AM 49.6°F9.8°C 38.7°F3.7°C 66% Calm Calm 4.0 mph6.4 kmh 29.95 in1014.2 mb 0.00 in0.0 mm 0.00 in0.0 mm 0.00 in0.0 mm
01:51 AM 49.8°F9.9°C 39.0°F3.9°C 66% Calm Calm 4.0 mph6.4 kmh 29.95 in1014.2 mb 0.00 in0.0 mm 0.00 in0.0 mm 0.00 in0.0 mm
01:44 AM 50.2°F10.1°C 38.8°F3.8°C 65% Calm Calm 5.0 mph8.0 kmh 29.95 in1014.2 mb 0.00 in0.0 mm 0.00 in0.0 mm 0.00 in0.0 mm
01:37 AM 50.5°F10.3°C 38.8°F3.8°C 64% Calm Calm 5.0 mph8.0 kmh 29.94 in1013.9 mb 0.00 in0.0 mm 0.00 in0.0 mm 0.00 in0.0 mm
01:30 AM 50.7°F10.4°C 39.0°F3.9°C 64% Calm Calm 3.0 mph4.8 kmh 29.94 in1013.9 mb 0.00 in0.0 mm 0.00 in0.0 mm 0.00 in0.0 mm
01:23 AM 51.1°F10.6°C 38.8°F3.8°C 63% Calm Calm 5.0 mph8.0 kmh 29.94 in1013.9 mb 0.00 in0.0 mm 0.00 in0.0 mm 0.00 in0.0 mm
01:16 AM 51.4°F10.8°C 38.8°F3.8°C 62% Calm Calm 5.0 mph8.0 kmh 29.94 in1013.9 mb 0.00 in0.0 mm 0.00 in0.0 mm 0.00 in0.0 mm
01:09 AM 51.8°F11.0°C 38.8°F3.8°C 61% 1.0 mph NW1.6 kmh NW 5.0 mph8.0 kmh 29.94 in1013.9 mb 0.00 in0.0 mm 0.00 in0.0 mm 0.00 in0.0 mm
01:02 AM 52.2°F11.2°C 39.2°F4.0°C 61% Calm Calm 4.0 mph6.4 kmh 29.93 in1013.5 mb 0.00 in0.0 mm 0.00 in0.0 mm 0.00 in0.0 mm
12:55 AM 52.5°F11.4°C 39.6°F4.2°C 61% Calm Calm 3.0 mph4.8 kmh 29.93 in1013.5 mb 0.00 in0.0 mm 0.00 in0.0 mm 0.00 in0.0 mm
12:48 AM 53.1°F11.7°C 39.9°F4.4°C 61% Calm Calm 8.0 mph12.9 kmh 29.93 in1013.5 mb 0.00 in0.0 mm 0.00 in0.0 mm 0.00 in0.0 mm
12:41 AM 53.4°F11.9°C 39.9°F4.4°C 60% Calm Calm 4.0 mph6.4 kmh 29.93 in1013.5 mb 0.00 in0.0 mm 0.00 in0.0 mm 0.00 in0.0 mm
12:34 AM 53.8°F12.1°C 40.3°F4.6°C 60% Calm Calm 4.0 mph6.4 kmh 29.93 in1013.5 mb 0.00 in0.0 mm 0.00 in0.0 mm 0.00 in0.0 mm
12:27 AM 54.0°F12.2°C 39.9°F4.4°C 59% Calm Calm 4.0 mph6.4 kmh 29.93 in1013.5 mb 0.00 in0.0 mm 0.00 in0.0 mm 0.00 in0.0 mm
12:20 AM 54.0°F12.2°C 39.9°F4.4°C 59% 1.0 mph W1.6 kmh W 5.0 mph8.0 kmh 29.93 in1013.5 mb 0.00 in0.0 mm 0.00 in0.0 mm 0.00 in0.0 mm
12:13 AM 54.0°F12.2°C 39.6°F4.2°C 58% Calm Calm 5.0 mph8.0 kmh 29.93 in1013.5 mb 0.00 in0.0 mm 0.00 in0.0 mm 0.00 in0.0 mm
12:06 AM 54.1°F12.3°C 40.1°F4.5°C 59% Calm Calm 4.0 mph6.4 kmh 29.93 in1013.5 mb 0.00 in0.0 mm 0.00 in0.0 mm 0.00 in0.0 mm